createdAt,value
2022-10-18T00:00:52.785Z,100.00
2022-10-18T00:03:20.793Z,100.00
2022-10-18T00:05:48.336Z,100.00
2022-10-18T00:08:15.102Z,100.00
2022-10-18T00:10:47.896Z,100.00
2022-10-18T00:13:14.881Z,100.00
2022-10-18T00:16:04.498Z,100.00
2022-10-18T00:18:32.101Z,100.00
2022-10-18T00:21:04.656Z,100.00
2022-10-18T00:23:34.433Z,100.00
2022-10-18T00:26:06.708Z,100.00
2022-10-18T00:28:34.657Z,100.00
2022-10-18T00:31:21.332Z,100.00
2022-10-18T00:33:50.925Z,100.00
2022-10-18T00:36:17.879Z,100.00
2022-10-18T00:38:45.199Z,100.00
2022-10-18T00:41:18.483Z,100.00
2022-10-18T00:44:08.738Z,100.00
2022-10-18T00:46:38.769Z,100.00
2022-10-18T00:49:14.702Z,100.00
2022-10-18T00:51:48.470Z,100.00
2022-10-18T00:54:16.532Z,100.00
2022-10-18T00:56:44.921Z,100.00
2022-10-18T00:59:14.440Z,100.00
2022-10-18T01:01:48.377Z,100.00
2022-10-18T01:04:16.725Z,100.00
2022-10-18T01:06:49.201Z,100.00
2022-10-18T01:09:37.806Z,100.00
2022-10-18T01:12:21.024Z,100.00
2022-10-18T01:14:52.429Z,100.00
2022-10-18T01:17:30.345Z,100.00
2022-10-18T01:20:18.862Z,100.00
2022-10-18T01:22:51.835Z,100.00
2022-10-18T01:25:32.393Z,100.00
2022-10-18T01:28:20.553Z,100.00
2022-10-18T01:31:04.070Z,100.00
2022-10-18T01:33:36.037Z,100.00
2022-10-18T01:36:18.300Z,100.00
2022-10-18T01:38:47.308Z,100.00
2022-10-18T01:41:16.696Z,100.00
2022-10-18T01:43:49.673Z,100.00
2022-10-18T01:46:21.403Z,100.00
2022-10-18T01:48:54.089Z,100.00
2022-10-18T01:51:29.290Z,100.00
2022-10-18T01:53:58.127Z,100.00
2022-10-18T01:56:42.706Z,100.00
2022-10-18T01:59:20.707Z,100.00
2022-10-18T02:02:05.531Z,100.00
2022-10-18T02:04:38.835Z,100.00
2022-10-18T02:07:29.439Z,100.00
2022-10-18T02:10:05.359Z,100.00
2022-10-18T02:12:34.170Z,100.00
2022-10-18T02:15:04.275Z,100.00
2022-10-18T02:17:34.258Z,100.00
2022-10-18T02:20:02.773Z,100.00
2022-10-18T02:22:33.434Z,100.00
2022-10-18T02:25:04.795Z,100.00
2022-10-18T02:27:31.472Z,100.00
2022-10-18T02:30:05.041Z,100.00
2022-10-18T02:32:40.339Z,100.00
2022-10-18T02:35:18.918Z,100.00
2022-10-18T02:37:47.933Z,100.00
2022-10-18T02:40:15.514Z,100.00
2022-10-18T02:42:50.191Z,100.00
2022-10-18T02:45:17.689Z,100.00
2022-10-18T02:47:44.327Z,100.00
2022-10-18T02:50:12.786Z,100.00
2022-10-18T02:52:39.328Z,100.00
2022-10-18T02:55:07.739Z,100.00
2022-10-18T02:57:40.799Z,100.00
2022-10-18T03:00:08.055Z,100.00
2022-10-18T03:02:34.609Z,100.00
2022-10-18T03:05:01.383Z,100.00
2022-10-18T03:07:28.361Z,100.00
2022-10-18T03:09:54.956Z,100.00
2022-10-18T03:12:23.346Z,100.00
2022-10-18T03:14:49.865Z,100.00
2022-10-18T03:17:16.658Z,100.00
2022-10-18T03:19:45.479Z,100.00
2022-10-18T03:22:11.978Z,100.00
2022-10-18T03:24:38.436Z,100.00
2022-10-18T03:27:05.062Z,100.00
2022-10-18T03:29:31.868Z,100.00
2022-10-18T03:31:58.379Z,100.00
2022-10-18T03:34:25.047Z,100.00
2022-10-18T03:36:51.576Z,100.00
2022-10-18T03:39:19.906Z,100.00
2022-10-18T03:41:48.173Z,100.00
2022-10-18T03:44:14.707Z,100.00
2022-10-18T03:46:41.287Z,100.00
2022-10-18T03:49:09.651Z,100.00
2022-10-18T03:51:36.141Z,100.00
2022-10-18T03:54:02.746Z,100.00
2022-10-18T03:56:29.471Z,100.00
2022-10-18T03:58:57.162Z,100.00
2022-10-18T04:01:24.059Z,100.00
2022-10-18T04:03:50.793Z,100.00
2022-10-18T04:06:17.320Z,100.00
2022-10-18T04:08:43.808Z,100.00
2022-10-18T04:11:15.692Z,100.00
2022-10-18T04:13:42.205Z,100.00
2022-10-18T04:16:08.674Z,100.00
2022-10-18T04:18:35.292Z,100.00
2022-10-18T04:21:01.802Z,100.00
2022-10-18T04:23:28.556Z,100.00
2022-10-18T04:25:56.808Z,100.00
2022-10-18T04:28:23.439Z,100.00
2022-10-18T04:30:53.621Z,100.00
2022-10-18T04:33:22.197Z,100.00
2022-10-18T04:35:52.174Z,100.00
2022-10-18T04:38:19.895Z,100.00
2022-10-18T04:40:46.939Z,100.00
2022-10-18T04:43:13.413Z,100.00
2022-10-18T04:45:39.913Z,100.00
2022-10-18T04:48:13.126Z,100.00
2022-10-18T04:50:39.740Z,100.00
2022-10-18T04:53:06.236Z,100.00
2022-10-18T04:55:32.869Z,100.00
2022-10-18T04:57:59.367Z,100.00
2022-10-18T05:00:27.815Z,100.00
2022-10-18T05:03:00.327Z,100.00
2022-10-18T05:05:43.322Z,100.00
2022-10-18T05:08:13.511Z,100.00
2022-10-18T05:10:40.174Z,100.00
2022-10-18T05:13:06.701Z,100.00
2022-10-18T05:15:35.050Z,100.00
2022-10-18T05:18:01.634Z,100.00
2022-10-18T05:20:28.234Z,100.00
2022-10-18T05:22:54.837Z,100.00
2022-10-18T05:25:21.339Z,100.00
2022-10-18T05:27:47.913Z,100.00
2022-10-18T05:30:14.685Z,100.00
2022-10-18T05:32:41.358Z,100.00
2022-10-18T05:35:08.187Z,100.00
2022-10-18T05:37:34.709Z,100.00
2022-10-18T05:40:03.302Z,100.00
2022-10-18T05:42:30.041Z,100.00
2022-10-18T05:44:57.003Z,100.00
2022-10-18T05:47:23.605Z,100.00
2022-10-18T05:49:50.209Z,100.00
2022-10-18T05:52:21.837Z,100.00
2022-10-18T05:54:48.343Z,100.00
2022-10-18T05:57:14.974Z,100.00
2022-10-18T05:59:48.076Z,100.00
2022-10-18T06:02:14.596Z,100.00
2022-10-18T06:04:41.141Z,100.00
2022-10-18T06:07:15.550Z,100.00
2022-10-18T06:09:43.755Z,100.00
2022-10-18T06:12:10.536Z,100.00
2022-10-18T06:14:39.631Z,100.00
2022-10-18T06:17:06.296Z,100.00
2022-10-18T06:19:33.052Z,100.00
2022-10-18T06:21:59.649Z,100.00
2022-10-18T06:24:26.771Z,100.00
2022-10-18T06:26:55.174Z,100.00
2022-10-18T06:29:23.542Z,100.00
2022-10-18T06:31:50.006Z,100.00
2022-10-18T06:34:16.478Z,100.00
2022-10-18T06:36:44.722Z,100.00
2022-10-18T06:39:14.630Z,100.00
2022-10-18T06:41:41.248Z,100.00
2022-10-18T06:44:15.572Z,100.00
2022-10-18T06:46:42.454Z,100.00
2022-10-18T06:49:09.183Z,100.00
2022-10-18T06:51:38.346Z,100.00
2022-10-18T06:54:17.356Z,100.00
2022-10-18T06:56:47.402Z,100.00
2022-10-18T06:59:14.371Z,100.00
2022-10-18T07:01:41.205Z,100.00
2022-10-18T07:04:09.468Z,100.00
2022-10-18T07:06:35.958Z,100.00
2022-10-18T07:09:03.260Z,100.00
2022-10-18T07:11:37.790Z,98.87
2022-10-18T07:14:05.250Z,100.00
2022-10-18T07:16:33.714Z,100.00
2022-10-18T07:19:00.595Z,100.00
2022-10-18T07:21:27.565Z,100.00
2022-10-18T07:23:54.024Z,100.00
2022-10-18T07:26:33.429Z,94.03
2022-10-18T07:29:05.521Z,88.89
2022-10-18T07:31:33.403Z,86.75
2022-10-18T07:34:00.152Z,87.66
2022-10-18T07:36:27.278Z,86.36
2022-10-18T07:38:53.923Z,84.80
2022-10-18T07:41:26.639Z,83.39
2022-10-18T07:43:53.634Z,80.40
2022-10-18T07:46:21.620Z,78.58
2022-10-18T07:48:50.479Z,76.42
2022-10-18T07:51:18.495Z,77.02
2022-10-18T07:53:48.722Z,75.02
2022-10-18T07:56:22.130Z,75.77
2022-10-18T07:58:51.499Z,73.43
2022-10-18T08:01:19.188Z,73.42
2022-10-18T08:03:52.665Z,71.08
2022-10-18T08:06:20.130Z,69.26
2022-10-18T08:08:47.009Z,71.39
2022-10-18T08:11:19.537Z,70.01
2022-10-18T08:13:46.437Z,69.19
2022-10-18T08:19:17.213Z,69.97
2022-10-18T08:24:36.420Z,66.90
2022-10-18T08:27:03.291Z,67.88
2022-10-18T08:32:18.451Z,73.04
2022-10-18T08:34:45.142Z,71.50
2022-10-18T08:37:11.937Z,70.15
2022-10-18T08:39:40.390Z,69.19
2022-10-18T08:42:34.494Z,64.93
2022-10-18T08:45:08.283Z,67.91
2022-10-18T08:47:49.212Z,64.59
2022-10-18T08:50:21.536Z,61.11
2022-10-18T08:52:51.084Z,64.49
2022-10-18T08:55:29.334Z,62.28
2022-10-18T08:57:58.601Z,61.18
2022-10-18T09:00:32.379Z,61.72
2022-10-18T09:03:22.207Z,61.35
2022-10-18T09:05:52.783Z,59.98
2022-10-18T09:08:38.376Z,61.28
2022-10-18T09:11:20.571Z,61.41
2022-10-18T09:14:07.397Z,57.48
2022-10-18T09:16:56.678Z,58.29
2022-10-18T09:20:02.407Z,59.14
2022-10-18T09:22:53.695Z,57.67
2022-10-18T09:25:26.576Z,59.30
2022-10-18T09:28:05.590Z,58.20
2022-10-18T09:31:04.197Z,54.24
2022-10-18T09:33:35.114Z,58.49
2022-10-18T09:36:05.310Z,56.68
2022-10-18T09:38:40.543Z,55.85
2022-10-18T09:41:15.325Z,56.20
2022-10-18T09:44:17.635Z,51.26
2022-10-18T09:46:50.766Z,55.42
2022-10-18T09:49:23.757Z,56.27
2022-10-18T09:51:53.468Z,57.28
2022-10-18T09:54:23.105Z,56.57
2022-10-18T09:57:02.164Z,55.62
2022-10-18T09:59:47.352Z,52.42
2022-10-18T10:02:19.922Z,52.61
2022-10-18T10:04:46.599Z,52.13
2022-10-18T10:07:24.803Z,50.84
2022-10-18T10:09:59.823Z,48.40
2022-10-18T10:12:32.389Z,50.96
2022-10-18T10:15:21.271Z,48.36
2022-10-18T10:18:16.121Z,49.29
2022-10-18T10:20:44.920Z,50.93
2022-10-18T10:23:25.950Z,49.65
2022-10-18T10:25:56.571Z,52.20
2022-10-18T10:28:26.005Z,52.00
2022-10-18T10:31:01.225Z,50.50
2022-10-18T10:33:32.391Z,43.35
2022-10-18T10:36:01.015Z,49.53
2022-10-18T10:38:31.738Z,49.03
2022-10-18T10:40:59.518Z,49.42
2022-10-18T10:43:37.571Z,46.18
2022-10-18T10:46:15.356Z,46.50
2022-10-18T10:48:52.161Z,45.39
2022-10-18T10:51:42.315Z,41.50
2022-10-18T10:54:21.862Z,40.52
2022-10-18T10:57:02.371Z,41.65
2022-10-18T10:59:48.825Z,38.64
2022-10-18T11:02:18.364Z,43.37
2022-10-18T11:04:47.066Z,45.56
2022-10-18T11:07:41.161Z,41.19
2022-10-18T11:10:10.774Z,44.95
2022-10-18T11:12:39.955Z,43.85
2022-10-18T11:15:12.646Z,42.89
2022-10-18T11:17:48.659Z,44.62
2022-10-18T11:20:23.166Z,44.22
2022-10-18T11:23:07.238Z,42.39
2022-10-18T11:25:43.933Z,42.59
2022-10-18T11:28:26.008Z,40.55
2022-10-18T11:31:07.278Z,39.97
2022-10-18T11:34:10.546Z,42.55
2022-10-18T11:37:26.387Z,41.72
2022-10-18T11:40:23.693Z,41.42
2022-10-18T11:42:58.468Z,42.12
2022-10-18T11:45:27.833Z,43.76
2022-10-18T11:48:36.039Z,40.98
2022-10-18T11:51:08.875Z,44.89
2022-10-18T11:53:50.974Z,44.15
2022-10-18T11:56:40.407Z,41.57
2022-10-18T11:59:11.211Z,43.80
2022-10-18T12:02:08.406Z,40.20
2022-10-18T12:04:49.097Z,43.58
2022-10-18T12:07:33.116Z,43.19
2022-10-18T12:10:03.155Z,43.42
2022-10-18T12:12:37.805Z,40.42
2022-10-18T12:15:19.299Z,42.72
2022-10-18T12:17:53.190Z,43.62
2022-10-18T12:20:29.237Z,42.60
2022-10-18T12:23:32.103Z,41.40
2022-10-18T12:26:04.491Z,43.66
2022-10-18T12:28:43.861Z,42.67
2022-10-18T12:31:14.483Z,43.29
2022-10-18T12:33:46.691Z,43.72
2022-10-18T12:36:22.436Z,43.73
2022-10-18T12:39:06.841Z,41.54
2022-10-18T12:41:36.393Z,44.10
2022-10-18T12:44:23.744Z,40.75
2022-10-18T12:46:58.478Z,44.18
2022-10-18T12:49:39.142Z,42.27
2022-10-18T12:52:23.569Z,42.59
2022-10-18T12:55:13.923Z,42.45
2022-10-18T12:58:15.598Z,43.43
2022-10-18T13:00:42.216Z,45.60
2022-10-18T13:03:22.545Z,44.81
2022-10-18T13:05:54.325Z,45.69
2022-10-18T13:08:27.974Z,44.88
2022-10-18T13:11:12.846Z,43.08
2022-10-18T13:14:17.261Z,44.12
2022-10-18T13:16:50.206Z,46.11
2022-10-18T13:19:37.368Z,44.56
2022-10-18T13:22:12.635Z,45.26
2022-10-18T13:25:00.080Z,41.29
2022-10-18T13:27:54.834Z,43.53
2022-10-18T13:30:31.022Z,44.50
2022-10-18T13:33:09.564Z,45.74
2022-10-18T13:35:56.748Z,44.03
2022-10-18T13:38:32.129Z,44.78
2022-10-18T13:41:10.270Z,43.05
2022-10-18T13:44:09.337Z,43.77
2022-10-18T13:46:40.613Z,47.32
2022-10-18T13:49:31.337Z,44.39
2022-10-18T13:52:42.979Z,44.47
2022-10-18T13:55:31.150Z,46.98
2022-10-18T13:58:10.237Z,48.02
2022-10-18T14:01:07.150Z,46.96
2022-10-18T14:03:57.562Z,45.92
2022-10-18T14:06:28.322Z,47.55
2022-10-18T14:09:40.265Z,46.29
2022-10-18T14:12:21.639Z,47.62
2022-10-18T14:14:57.307Z,46.98
2022-10-18T14:17:31.842Z,47.50
2022-10-18T14:20:24.788Z,47.18
2022-10-18T14:23:06.561Z,47.05
2022-10-18T14:25:38.399Z,48.24
2022-10-18T14:28:12.267Z,48.38
2022-10-18T14:30:59.727Z,47.96
2022-10-18T14:33:45.632Z,48.94
2022-10-18T14:36:21.105Z,46.93
2022-10-18T14:39:16.870Z,46.46
2022-10-18T14:41:57.528Z,45.18
2022-10-18T14:44:35.637Z,46.37
2022-10-18T14:47:13.343Z,47.63
2022-10-18T14:49:46.318Z,48.14
2022-10-18T14:52:18.482Z,49.30
2022-10-18T14:54:45.587Z,49.61
2022-10-18T14:57:33.618Z,48.85
2022-10-18T15:00:09.123Z,48.99
2022-10-18T15:02:39.186Z,49.89
2022-10-18T15:05:07.704Z,49.60
2022-10-18T15:07:35.233Z,49.91
2022-10-18T15:10:04.514Z,50.73
2022-10-18T15:12:36.881Z,51.07
2022-10-18T15:15:23.701Z,50.89
2022-10-18T15:17:51.453Z,50.98
2022-10-18T15:20:30.137Z,51.63
2022-10-18T15:23:29.709Z,51.68
2022-10-18T15:26:12.217Z,52.77
2022-10-18T15:28:50.290Z,53.00
2022-10-18T15:31:33.792Z,51.97
2022-10-18T15:34:27.804Z,52.82
2022-10-18T15:36:58.075Z,53.66
2022-10-18T15:39:31.921Z,54.50
2022-10-18T15:42:03.376Z,55.21
2022-10-18T15:44:51.265Z,55.64
2022-10-18T15:47:24.475Z,57.81
2022-10-18T15:49:52.571Z,59.08
2022-10-18T15:52:21.908Z,60.14
2022-10-18T15:57:20.540Z,61.68
2022-10-18T15:59:56.242Z,62.73
2022-10-18T16:02:22.992Z,62.99
2022-10-18T16:04:49.653Z,64.25
2022-10-18T16:07:16.288Z,65.76
2022-10-18T16:09:43.013Z,66.64
2022-10-18T16:12:09.481Z,67.72
2022-10-18T16:14:42.588Z,69.41
2022-10-18T16:17:16.875Z,69.88
2022-10-18T16:19:52.069Z,70.88
2022-10-18T16:22:18.627Z,71.50
2022-10-18T16:24:45.141Z,72.62
2022-10-18T16:27:11.808Z,73.16
2022-10-18T16:29:38.424Z,74.09
2022-10-18T16:32:05.213Z,74.42
2022-10-18T16:34:34.537Z,75.14
2022-10-18T16:37:01.040Z,76.27
2022-10-18T16:39:31.673Z,76.70
2022-10-18T16:42:00.331Z,78.89
2022-10-18T16:44:26.893Z,78.34
2022-10-18T16:46:56.294Z,78.62
2022-10-18T16:49:25.177Z,78.85
2022-10-18T16:51:54.648Z,80.15
2022-10-18T16:54:21.177Z,80.54
2022-10-18T16:56:53.733Z,81.24
2022-10-18T16:59:30.757Z,81.99
2022-10-18T17:02:04.042Z,82.07
2022-10-18T17:04:30.570Z,82.20
2022-10-18T17:07:01.687Z,82.26
2022-10-18T17:09:28.433Z,82.68
2022-10-18T17:11:57.267Z,83.14
2022-10-18T17:14:23.852Z,84.65
2022-10-18T17:16:54.852Z,84.75
2022-10-18T17:19:23.729Z,84.97
2022-10-18T17:21:50.203Z,84.88
2022-10-18T17:24:20.688Z,84.39
2022-10-18T17:26:47.187Z,84.13
2022-10-18T17:29:13.987Z,84.19
2022-10-18T17:31:40.685Z,85.42
2022-10-18T17:34:07.443Z,86.74
2022-10-18T17:36:34.543Z,87.88
2022-10-18T17:39:03.188Z,88.56
2022-10-18T17:41:30.557Z,88.66
2022-10-18T17:43:57.336Z,90.09
2022-10-18T17:46:30.527Z,89.26
2022-10-18T17:48:57.297Z,91.04
2022-10-18T17:51:23.781Z,91.15
2022-10-18T17:53:50.461Z,92.13
2022-10-18T17:56:16.971Z,92.93
2022-10-18T17:58:47.015Z,92.80
2022-10-18T18:01:21.213Z,92.70
2022-10-18T18:03:55.700Z,93.43
2022-10-18T18:06:30.935Z,94.18
2022-10-18T18:08:59.417Z,94.44
2022-10-18T18:11:29.700Z,94.18
2022-10-18T18:14:00.073Z,94.50
2022-10-18T18:16:28.837Z,95.15
2022-10-18T18:18:58.068Z,95.68
2022-10-18T18:21:27.794Z,96.34
2022-10-18T18:23:55.134Z,98.30
2022-10-18T18:26:24.043Z,97.91
2022-10-18T18:28:55.539Z,97.92
2022-10-18T18:31:23.963Z,99.03
2022-10-18T18:33:51.734Z,99.02
2022-10-18T18:36:21.264Z,100.00
2022-10-18T18:38:48.251Z,100.00
2022-10-18T18:41:20.512Z,100.00
2022-10-18T18:43:52.341Z,100.00
2022-10-18T18:46:19.483Z,100.00
2022-10-18T18:48:46.368Z,100.00
2022-10-18T18:51:17.146Z,100.00
2022-10-18T18:53:45.015Z,100.00
2022-10-18T18:56:15.699Z,100.00
2022-10-18T18:58:46.477Z,100.00
2022-10-18T19:01:19.030Z,100.00
2022-10-18T19:03:55.120Z,100.00
2022-10-18T19:06:27.201Z,100.00
2022-10-18T19:09:02.043Z,100.00
2022-10-18T19:11:37.916Z,100.00
2022-10-18T19:14:09.478Z,100.00
2022-10-18T19:16:38.514Z,100.00
2022-10-18T19:19:11.789Z,100.00
2022-10-18T19:21:47.001Z,100.00
2022-10-18T19:24:22.112Z,100.00
2022-10-18T19:26:51.814Z,100.00
2022-10-18T19:29:21.991Z,100.00
2022-10-18T19:31:52.109Z,100.00
2022-10-18T19:34:20.189Z,100.00
2022-10-18T19:36:48.315Z,100.00
2022-10-18T19:39:20.858Z,100.00
2022-10-18T19:41:50.700Z,100.00
2022-10-18T19:44:19.403Z,100.00
2022-10-18T19:46:52.991Z,100.00
2022-10-18T19:49:19.468Z,100.00
2022-10-18T19:51:46.636Z,100.00
2022-10-18T19:54:14.375Z,100.00
2022-10-18T19:56:43.699Z,100.00
2022-10-18T19:59:13.535Z,100.00
2022-10-18T20:01:42.433Z,100.00
2022-10-18T20:04:10.433Z,100.00
2022-10-18T20:06:38.131Z,100.00
2022-10-18T20:09:06.659Z,100.00
2022-10-18T20:11:34.131Z,100.00
2022-10-18T20:14:00.921Z,100.00
2022-10-18T20:16:31.332Z,100.00
2022-10-18T20:19:01.510Z,100.00
2022-10-18T20:21:29.409Z,100.00
2022-10-18T20:23:56.562Z,100.00
2022-10-18T20:26:25.286Z,100.00
2022-10-18T20:28:57.030Z,100.00
2022-10-18T20:31:43.335Z,100.00
2022-10-18T20:34:11.634Z,100.00
2022-10-18T20:36:39.069Z,100.00
2022-10-18T20:39:06.808Z,100.00
2022-10-18T20:41:38.282Z,100.00
2022-10-18T20:44:07.954Z,100.00
2022-10-18T20:46:36.608Z,100.00
2022-10-18T20:49:05.882Z,100.00
2022-10-18T20:51:36.065Z,100.00
2022-10-18T20:54:06.636Z,100.00
2022-10-18T20:56:35.713Z,100.00
2022-10-18T20:59:02.804Z,100.00
2022-10-18T21:01:31.668Z,100.00
2022-10-18T21:04:02.581Z,100.00
2022-10-18T21:06:34.376Z,100.00
2022-10-18T21:09:11.210Z,100.00
2022-10-18T21:11:41.065Z,100.00
2022-10-18T21:14:11.290Z,100.00
2022-10-18T21:16:40.290Z,100.00
2022-10-18T21:19:12.004Z,100.00
2022-10-18T21:21:44.144Z,100.00
2022-10-18T21:24:12.079Z,100.00
2022-10-18T21:26:39.274Z,100.00
2022-10-18T21:29:06.797Z,100.00
2022-10-18T21:31:39.245Z,100.00
2022-10-18T21:34:14.678Z,100.00
2022-10-18T21:36:44.750Z,100.00
2022-10-18T21:39:15.347Z,100.00
2022-10-18T21:41:43.036Z,100.00
2022-10-18T21:44:10.965Z,100.00
2022-10-18T21:46:39.415Z,100.00
2022-10-18T21:49:13.395Z,100.00
2022-10-18T21:51:40.365Z,100.00
2022-10-18T21:54:17.390Z,100.00
2022-10-18T21:56:44.360Z,100.00
2022-10-18T21:59:13.663Z,100.00
2022-10-18T22:01:42.439Z,100.00
2022-10-18T22:04:19.685Z,100.00
2022-10-18T22:06:46.404Z,100.00
2022-10-18T22:09:12.954Z,100.00
2022-10-18T22:11:46.133Z,100.00
2022-10-18T22:14:13.247Z,100.00
2022-10-18T22:16:39.948Z,100.00
2022-10-18T22:19:07.816Z,100.00
2022-10-18T22:21:37.445Z,100.00
2022-10-18T22:24:07.398Z,100.00
2022-10-18T22:26:36.745Z,100.00
2022-10-18T22:29:07.440Z,100.00
2022-10-18T22:31:38.201Z,100.00
2022-10-18T22:34:10.441Z,100.00
2022-10-18T22:36:38.962Z,100.00
2022-10-18T22:39:06.784Z,100.00
2022-10-18T22:41:34.579Z,100.00
2022-10-18T22:44:03.577Z,100.00
2022-10-18T22:46:31.010Z,100.00
2022-10-18T22:48:57.785Z,100.00
2022-10-18T22:51:24.623Z,100.00
2022-10-18T22:53:51.243Z,100.00
2022-10-18T22:56:20.059Z,100.00
2022-10-18T22:58:48.086Z,100.00
2022-10-18T23:01:17.415Z,100.00
2022-10-18T23:03:44.429Z,100.00
2022-10-18T23:06:24.603Z,100.00
2022-10-18T23:08:54.151Z,100.00
2022-10-18T23:11:24.978Z,100.00
2022-10-18T23:13:51.901Z,100.00
2022-10-18T23:16:18.683Z,100.00
2022-10-18T23:18:52.733Z,100.00
2022-10-18T23:21:20.047Z,100.00
2022-10-18T23:23:46.859Z,100.00
2022-10-18T23:26:23.860Z,100.00
2022-10-18T23:28:52.260Z,100.00
2022-10-18T23:31:30.122Z,100.00
2022-10-18T23:33:59.319Z,100.00
2022-10-18T23:36:26.311Z,100.00
2022-10-18T23:38:55.571Z,100.00
2022-10-18T23:41:22.909Z,100.00
2022-10-18T23:43:49.864Z,100.00
2022-10-18T23:46:19.436Z,100.00
2022-10-18T23:48:46.824Z,100.00
2022-10-18T23:51:14.091Z,100.00
2022-10-18T23:53:40.973Z,100.00
2022-10-18T23:56:10.124Z,100.00
2022-10-18T23:58:37.651Z,100.00
